createdAt,value
2016-12-12T00:00:34.557Z,8.91
2016-12-12T00:01:35.192Z,8.89
2016-12-12T00:02:35.803Z,8.81
2016-12-12T00:03:36.428Z,8.89
2016-12-12T00:04:37.051Z,8.87
2016-12-12T00:05:37.673Z,8.89
2016-12-12T00:06:38.287Z,8.88
2016-12-12T00:07:38.919Z,8.87
2016-12-12T00:08:39.536Z,8.94
2016-12-12T00:09:40.157Z,8.92
2016-12-12T00:10:40.819Z,8.91
2016-12-12T00:11:41.463Z,9
2016-12-12T00:12:42.085Z,8.91
2016-12-12T00:13:42.726Z,8.88
2016-12-12T00:14:43.372Z,8.88
2016-12-12T00:15:43.980Z,8.91
2016-12-12T00:16:44.635Z,8.87
2016-12-12T00:17:45.268Z,8.87
2016-12-12T00:18:45.902Z,8.94
2016-12-12T00:19:46.517Z,8.89
2016-12-12T00:20:47.163Z,8.87
2016-12-12T00:21:47.801Z,8.87
2016-12-12T00:22:48.451Z,8.91
2016-12-12T00:23:49.098Z,8.91
2016-12-12T00:24:49.746Z,8.94
2016-12-12T00:25:50.391Z,8.99
2016-12-12T00:26:51.015Z,8.99
2016-12-12T00:27:51.631Z,8.92
2016-12-12T00:28:52.260Z,8.95
2016-12-12T00:29:52.882Z,9
2016-12-12T00:30:53.548Z,9
2016-12-12T00:31:54.221Z,9.04
2016-12-12T00:32:54.849Z,9.02
2016-12-12T00:33:55.511Z,8.99
2016-12-12T00:34:56.156Z,8.94
2016-12-12T00:35:56.807Z,9.04
2016-12-12T00:36:57.431Z,8.92
2016-12-12T00:37:58.105Z,8.97
2016-12-12T00:38:58.720Z,9.02
2016-12-12T00:39:59.346Z,8.97
2016-12-12T00:41:00.021Z,8.95
2016-12-12T00:42:00.639Z,8.94
2016-12-12T00:43:01.264Z,8.92
2016-12-12T00:44:01.891Z,9
2016-12-12T00:45:02.504Z,8.91
2016-12-12T00:46:03.129Z,8.88
2016-12-12T00:47:03.794Z,8.91
2016-12-12T00:48:04.416Z,8.95
2016-12-12T00:49:05.037Z,8.91
2016-12-12T00:50:05.696Z,8.95
2016-12-12T00:51:06.320Z,8.95
2016-12-12T00:52:07.001Z,8.95
2016-12-12T00:53:07.636Z,8.92
2016-12-12T00:54:08.257Z,8.94
2016-12-12T00:55:08.895Z,8.99
2016-12-12T00:56:09.527Z,8.94
2016-12-12T00:57:10.158Z,8.91
2016-12-12T00:58:10.806Z,8.91
2016-12-12T00:59:11.433Z,8.89
2016-12-12T01:00:12.081Z,8.89
2016-12-12T01:01:12.703Z,8.91
2016-12-12T01:02:13.319Z,8.91
2016-12-12T01:03:13.989Z,8.87
2016-12-12T01:04:14.623Z,8.84
2016-12-12T01:05:15.250Z,8.94
2016-12-12T01:06:15.901Z,8.94
2016-12-12T01:07:16.551Z,8.91
2016-12-12T01:08:17.213Z,8.92
2016-12-12T01:09:17.833Z,8.89
2016-12-12T01:10:18.493Z,8.87
2016-12-12T01:11:19.129Z,8.87
2016-12-12T01:12:19.752Z,8.95
2016-12-12T01:13:20.409Z,9.04
2016-12-12T01:14:21.033Z,8.99
2016-12-12T01:15:21.668Z,8.95
2016-12-12T01:16:22.344Z,8.97
2016-12-12T01:17:22.959Z,8.97
2016-12-12T01:18:23.624Z,8.89
2016-12-12T01:19:24.235Z,9
2016-12-12T01:20:24.879Z,8.97
2016-12-12T01:21:25.533Z,9
2016-12-12T01:22:26.183Z,9.02
2016-12-12T01:23:26.829Z,8.97
2016-12-12T01:24:27.456Z,8.92
2016-12-12T01:25:28.068Z,9
2016-12-12T01:26:28.687Z,9.02
2016-12-12T01:27:29.338Z,9
2016-12-12T01:28:30.008Z,8.91
2016-12-12T01:29:30.650Z,8.97
2016-12-12T01:30:31.290Z,8.97
2016-12-12T01:31:31.931Z,8.87
2016-12-12T01:32:32.585Z,8.91
2016-12-12T01:33:33.243Z,8.88
2016-12-12T01:34:33.862Z,8.91
2016-12-12T01:35:34.488Z,8.91
2016-12-12T01:36:35.142Z,8.84
2016-12-12T01:37:35.781Z,8.92
2016-12-12T01:38:36.425Z,8.87
2016-12-12T01:39:37.058Z,8.88
2016-12-12T01:40:37.729Z,8.92
2016-12-12T01:41:38.360Z,8.99
2016-12-12T01:42:39.013Z,8.95
2016-12-12T01:43:39.655Z,9
2016-12-12T01:44:40.283Z,8.99
2016-12-12T01:45:40.932Z,8.88
2016-12-12T01:46:41.555Z,9
2016-12-12T01:47:42.213Z,8.99
2016-12-12T01:48:42.837Z,8.94
2016-12-12T01:49:43.495Z,8.95
2016-12-12T01:50:44.131Z,9
2016-12-12T01:51:44.760Z,8.97
2016-12-12T01:52:45.396Z,8.94
2016-12-12T01:53:46.044Z,9.03
2016-12-12T01:54:46.672Z,8.97
2016-12-12T01:55:47.313Z,8.97
2016-12-12T01:56:47.953Z,9.02
2016-12-12T01:57:48.603Z,8.97
2016-12-12T01:58:49.260Z,8.91
2016-12-12T01:59:49.885Z,8.91
2016-12-12T02:00:50.546Z,8.92
2016-12-12T02:01:51.200Z,9.02
2016-12-12T02:02:51.848Z,8.87
2016-12-12T02:03:52.495Z,8.91
2016-12-12T02:04:53.140Z,8.84
2016-12-12T02:05:53.779Z,8.84
2016-12-12T02:06:54.415Z,8.87
2016-12-12T02:07:55.061Z,8.95
2016-12-12T02:08:55.697Z,8.89
2016-12-12T02:09:56.337Z,8.82
2016-12-12T02:10:56.990Z,8.87
2016-12-12T02:11:57.611Z,8.81
2016-12-12T02:12:58.262Z,8.73
2016-12-12T02:13:58.897Z,8.79
2016-12-12T02:14:59.514Z,8.87
2016-12-12T02:16:00.139Z,8.87
2016-12-12T02:17:00.797Z,8.78
2016-12-12T02:18:01.440Z,8.85
2016-12-12T02:19:02.056Z,8.78
2016-12-12T02:20:02.684Z,8.81
2016-12-12T02:21:03.336Z,8.76
2016-12-12T02:22:03.955Z,8.79
2016-12-12T02:23:04.592Z,8.73
2016-12-12T02:24:05.221Z,8.71
2016-12-12T02:25:05.869Z,8.73
2016-12-12T02:26:06.508Z,8.74
2016-12-12T02:27:07.142Z,8.71
2016-12-12T02:28:07.798Z,8.66
2016-12-12T02:29:08.473Z,8.71
2016-12-12T02:30:09.111Z,8.69
2016-12-12T02:31:09.748Z,8.71
2016-12-12T02:32:10.412Z,8.61
2016-12-12T02:33:11.015Z,8.69
2016-12-12T02:34:11.681Z,8.74
2016-12-12T02:35:12.330Z,8.79
2016-12-12T02:36:12.972Z,8.7
2016-12-12T02:37:13.608Z,8.79
2016-12-12T02:38:14.238Z,8.73
2016-12-12T02:39:14.887Z,8.71
2016-12-12T02:40:15.535Z,8.71
2016-12-12T02:41:16.148Z,8.74
2016-12-12T02:42:16.771Z,8.74
2016-12-12T02:43:17.398Z,8.66
2016-12-12T02:44:18.042Z,8.67
2016-12-12T02:45:18.665Z,8.71
2016-12-12T02:46:19.284Z,8.71
2016-12-12T02:47:19.911Z,8.71
2016-12-12T02:48:20.532Z,8.7
2016-12-12T02:49:21.213Z,8.71
2016-12-12T02:50:21.838Z,8.67
2016-12-12T02:51:22.463Z,8.67
2016-12-12T02:52:23.086Z,8.7
2016-12-12T02:53:23.716Z,8.69
2016-12-12T02:54:24.334Z,8.67
2016-12-12T02:55:24.959Z,8.67
2016-12-12T02:56:25.598Z,8.63
2016-12-12T02:57:33.144Z,8.64
2016-12-12T02:58:33.772Z,8.64
2016-12-12T02:59:34.399Z,8.63
2016-12-12T03:00:35.016Z,8.63
2016-12-12T03:01:35.669Z,8.56
2016-12-12T03:02:36.286Z,8.6
2016-12-12T03:03:36.923Z,8.6
2016-12-12T03:04:37.546Z,8.55
2016-12-12T03:05:38.187Z,8.58
2016-12-12T03:06:38.840Z,8.58
2016-12-12T03:07:39.475Z,8.55
2016-12-12T03:08:40.095Z,8.56
2016-12-12T03:09:40.710Z,8.53
2016-12-12T03:10:41.342Z,8.6
2016-12-12T03:11:41.983Z,8.56
2016-12-12T03:12:42.636Z,8.56
2016-12-12T03:13:43.288Z,8.6
2016-12-12T03:14:43.916Z,8.61
2016-12-12T03:15:44.534Z,8.56
2016-12-12T03:16:45.166Z,8.53
2016-12-12T03:17:45.774Z,8.61
2016-12-12T03:18:46.480Z,8.61
2016-12-12T03:19:47.102Z,8.6
2016-12-12T03:20:47.730Z,8.69
2016-12-12T03:21:48.359Z,8.63
2016-12-12T03:22:48.981Z,8.64
2016-12-12T03:23:49.628Z,8.64
2016-12-12T03:24:50.256Z,8.69
2016-12-12T03:25:50.900Z,8.64
2016-12-12T03:26:51.527Z,8.63
2016-12-12T03:27:52.154Z,8.61
2016-12-12T03:28:52.795Z,8.67
2016-12-12T03:29:53.416Z,8.63
2016-12-12T03:30:54.043Z,8.69
2016-12-12T03:31:54.688Z,8.67
2016-12-12T03:32:55.323Z,8.61
2016-12-12T03:33:55.957Z,8.64
2016-12-12T03:34:56.627Z,8.7
2016-12-12T03:35:57.270Z,8.7
2016-12-12T03:36:57.917Z,8.69
2016-12-12T03:37:58.586Z,8.69
2016-12-12T03:38:59.218Z,8.69
2016-12-12T03:39:59.850Z,8.69
2016-12-12T03:41:00.471Z,8.64
2016-12-12T03:42:01.105Z,8.64
2016-12-12T03:43:01.755Z,8.61
2016-12-12T03:44:02.383Z,8.67
2016-12-12T03:45:03.022Z,8.63
2016-12-12T03:46:03.658Z,8.67
2016-12-12T03:47:04.282Z,8.6
2016-12-12T03:48:04.919Z,8.63
2016-12-12T03:49:05.579Z,8.53
2016-12-12T03:50:06.201Z,8.58
2016-12-12T03:51:06.830Z,8.52
2016-12-12T03:52:07.473Z,8.55
2016-12-12T03:53:08.105Z,8.55
2016-12-12T03:54:08.745Z,8.61
2016-12-12T03:55:09.405Z,8.52
2016-12-12T03:56:10.030Z,8.58
2016-12-12T03:57:10.679Z,8.61
2016-12-12T03:58:11.337Z,8.61
2016-12-12T03:59:11.978Z,8.56
2016-12-12T04:00:12.628Z,8.56
2016-12-12T04:01:13.266Z,8.61
2016-12-12T04:02:13.885Z,8.61
2016-12-12T04:03:14.521Z,8.58
2016-12-12T04:04:15.147Z,8.6
2016-12-12T04:05:15.799Z,8.58
2016-12-12T04:06:16.446Z,8.55
2016-12-12T04:07:17.077Z,8.56
2016-12-12T04:08:17.716Z,8.6
2016-12-12T04:09:18.359Z,8.6
2016-12-12T04:10:18.983Z,8.49
2016-12-12T04:11:19.615Z,8.56
2016-12-12T04:12:20.238Z,8.55
2016-12-12T04:13:20.873Z,8.49
2016-12-12T04:14:21.542Z,8.51
2016-12-12T04:15:22.180Z,8.56
2016-12-12T04:16:22.805Z,8.56
2016-12-12T04:17:23.447Z,8.58
2016-12-12T04:18:24.097Z,8.51
2016-12-12T04:19:24.719Z,8.45
2016-12-12T04:20:25.364Z,8.48
2016-12-12T04:21:25.994Z,8.49
2016-12-12T04:22:26.624Z,8.52
2016-12-12T04:23:27.272Z,8.48
2016-12-12T04:24:27.896Z,8.48
2016-12-12T04:25:28.519Z,8.51
2016-12-12T04:26:29.144Z,8.45
2016-12-12T04:27:29.766Z,8.48
2016-12-12T04:28:30.388Z,8.45
2016-12-12T04:29:31.037Z,8.48
2016-12-12T04:30:31.670Z,8.46
2016-12-12T04:31:32.313Z,8.46
2016-12-12T04:32:32.956Z,8.45
2016-12-12T04:33:33.587Z,8.45
2016-12-12T04:34:34.197Z,8.44
2016-12-12T04:35:34.818Z,8.45
2016-12-12T04:36:35.444Z,8.46
2016-12-12T04:37:36.080Z,8.48
2016-12-12T04:38:36.720Z,8.48
2016-12-12T04:39:37.367Z,8.44
2016-12-12T04:40:37.995Z,8.51
2016-12-12T04:41:38.620Z,8.45
2016-12-12T04:42:39.236Z,8.48
2016-12-12T04:43:39.863Z,8.53
2016-12-12T04:44:40.491Z,8.49
2016-12-12T04:45:41.142Z,8.46
2016-12-12T04:46:41.770Z,8.51
2016-12-12T04:47:42.410Z,8.44
2016-12-12T04:48:43.046Z,8.46
2016-12-12T04:49:43.684Z,8.52
2016-12-12T04:50:44.307Z,8.42
2016-12-12T04:51:44.936Z,8.48
2016-12-12T04:52:45.578Z,8.49
2016-12-12T04:53:46.209Z,8.44
2016-12-12T04:54:46.832Z,8.44
2016-12-12T04:55:47.459Z,8.42
2016-12-12T04:56:48.086Z,8.49
2016-12-12T04:57:48.725Z,8.48
2016-12-12T04:58:49.348Z,8.38
2016-12-12T04:59:49.992Z,8.38
2016-12-12T05:00:50.607Z,8.41
2016-12-12T05:01:51.223Z,8.33
2016-12-12T05:02:51.841Z,8.31
2016-12-12T05:03:52.464Z,8.31
2016-12-12T05:04:53.096Z,8.46
2016-12-12T05:05:53.723Z,8.3
2016-12-12T05:06:54.349Z,8.33
2016-12-12T05:07:54.982Z,8.2
2016-12-12T05:08:55.627Z,8.3
2016-12-12T05:09:56.258Z,8.2
2016-12-12T05:10:56.889Z,8.3
2016-12-12T05:11:57.548Z,8.3
2016-12-12T05:12:58.189Z,8.19
2016-12-12T05:13:58.829Z,8.27
2016-12-12T05:14:59.471Z,8.23
2016-12-12T05:16:00.109Z,8.34
2016-12-12T05:17:00.755Z,8.28
2016-12-12T05:18:01.388Z,8.26
2016-12-12T05:19:02.032Z,8.3
2016-12-12T05:20:02.669Z,8.36
2016-12-12T05:21:03.318Z,8.31
2016-12-12T05:22:03.952Z,8.26
2016-12-12T05:23:04.564Z,8.38
2016-12-12T05:24:05.194Z,8.3
2016-12-12T05:25:05.820Z,8.31
2016-12-12T05:26:06.460Z,8.33
2016-12-12T05:27:07.092Z,8.44
2016-12-12T05:28:07.738Z,8.27
2016-12-12T05:29:08.375Z,8.33
2016-12-12T05:30:09.010Z,8.34
2016-12-12T05:31:09.645Z,8.31
2016-12-12T05:32:10.260Z,8.41
2016-12-12T05:33:10.875Z,8.37
2016-12-12T05:34:11.492Z,8.42
2016-12-12T05:35:12.127Z,8.41
2016-12-12T05:36:12.746Z,8.34
2016-12-12T05:37:13.370Z,8.33
2016-12-12T05:38:14.008Z,8.31
2016-12-12T05:39:14.664Z,8.34
2016-12-12T05:40:15.324Z,8.36
2016-12-12T05:41:15.958Z,8.38
2016-12-12T05:42:16.572Z,8.34
2016-12-12T05:43:17.200Z,8.3
2016-12-12T05:44:17.823Z,8.3
2016-12-12T05:45:18.455Z,8.33
2016-12-12T05:46:19.095Z,8.27
2016-12-12T05:47:19.742Z,8.33
2016-12-12T05:48:20.390Z,8.28
2016-12-12T05:49:21.015Z,8.26
2016-12-12T05:50:21.643Z,8.23
2016-12-12T05:51:22.268Z,8.28
2016-12-12T05:52:22.886Z,8.36
2016-12-12T05:53:23.549Z,8.27
2016-12-12T05:54:24.180Z,8.3
2016-12-12T05:55:24.810Z,8.3
2016-12-12T05:56:25.464Z,8.3
2016-12-12T05:57:26.090Z,8.24
2016-12-12T05:58:26.708Z,8.31
2016-12-12T05:59:27.331Z,8.31
2016-12-12T06:00:27.953Z,8.24
2016-12-12T06:01:28.580Z,8.09
2016-12-12T06:02:29.192Z,7.93
2016-12-12T06:03:29.814Z,7.91
2016-12-12T06:04:30.533Z,7.88
2016-12-12T06:05:31.157Z,7.76
2016-12-12T06:06:31.837Z,7.8
2016-12-12T06:07:32.482Z,7.7
2016-12-12T06:08:33.113Z,7.77
2016-12-12T06:09:33.732Z,7.66
2016-12-12T06:10:34.402Z,7.61
2016-12-12T06:11:35.033Z,7.67
2016-12-12T06:12:35.695Z,7.61
2016-12-12T06:13:36.335Z,7.5
2016-12-12T06:14:36.979Z,7.47
2016-12-12T06:15:37.662Z,7.42
2016-12-12T06:16:38.297Z,7.33
2016-12-12T06:17:38.917Z,7.35
2016-12-12T06:18:39.599Z,7.36
2016-12-12T06:19:40.250Z,7.47
2016-12-12T06:20:40.874Z,7.35
2016-12-12T06:21:41.569Z,7.33
2016-12-12T06:22:42.216Z,7.35
2016-12-12T06:23:42.847Z,7.28
2016-12-12T06:24:43.525Z,7.24
2016-12-12T06:25:44.212Z,7.28
2016-12-12T06:26:44.824Z,7.28
2016-12-12T06:27:45.485Z,7.21
2016-12-12T06:28:46.143Z,7.25
2016-12-12T06:29:46.769Z,7.2
2016-12-12T06:30:47.407Z,7.25
2016-12-12T06:31:48.035Z,7.15
2016-12-12T06:32:48.680Z,7.28
2016-12-12T06:33:49.316Z,7.21
2016-12-12T06:34:49.973Z,7.11
2016-12-12T06:35:50.594Z,7.05
2016-12-12T06:36:51.226Z,7.15
2016-12-12T06:37:51.851Z,7.21
2016-12-12T06:38:52.478Z,7.07
2016-12-12T06:39:53.101Z,7.18
2016-12-12T06:40:53.770Z,7.14
2016-12-12T06:41:54.397Z,7.1
2016-12-12T06:42:55.047Z,7.11
2016-12-12T06:43:55.666Z,7.06
2016-12-12T06:44:56.289Z,7.11
2016-12-12T06:45:56.973Z,6.96
2016-12-12T06:46:57.612Z,7.03
2016-12-12T06:47:58.260Z,7.07
2016-12-12T06:48:58.932Z,7.1
2016-12-12T06:49:59.584Z,7.23
2016-12-12T06:51:00.218Z,7.14
2016-12-12T06:52:00.864Z,7.15
2016-12-12T06:53:01.495Z,7.07
2016-12-12T06:54:02.145Z,7.07
2016-12-12T06:55:02.788Z,7.07
2016-12-12T06:56:03.443Z,7.1
2016-12-12T06:57:04.109Z,7.11
2016-12-12T06:58:04.773Z,7.06
2016-12-12T06:59:05.415Z,7.05
2016-12-12T07:00:06.032Z,7.07
2016-12-12T07:01:06.706Z,7.06
2016-12-12T07:02:07.358Z,6.95
2016-12-12T07:03:08.052Z,6.96
2016-12-12T07:04:08.685Z,6.97
2016-12-12T07:05:09.338Z,6.95
2016-12-12T07:06:09.987Z,6.93
2016-12-12T07:07:10.625Z,6.89
2016-12-12T07:08:11.275Z,6.92
2016-12-12T07:09:11.935Z,6.88
2016-12-12T07:10:12.607Z,6.79
2016-12-12T07:11:13.290Z,6.84
2016-12-12T07:12:14.171Z,6.84
2016-12-12T07:13:15.000Z,6.77
2016-12-12T07:14:15.787Z,6.74
2016-12-12T07:15:16.502Z,6.67
2016-12-12T07:16:17.209Z,6.77
2016-12-12T07:17:17.871Z,6.75
2016-12-12T07:18:18.555Z,6.85
2016-12-12T07:19:19.218Z,6.66
2016-12-12T07:20:19.886Z,6.75
2016-12-12T07:21:20.537Z,6.66
2016-12-12T07:22:21.231Z,6.7
2016-12-12T07:23:21.868Z,6.72
2016-12-12T07:24:22.530Z,6.7
2016-12-12T07:25:23.320Z,6.66
2016-12-12T07:26:23.968Z,6.7
2016-12-12T07:27:24.605Z,6.77
2016-12-12T07:28:25.257Z,6.69
2016-12-12T07:29:25.936Z,6.67
2016-12-12T07:30:26.576Z,6.62
2016-12-12T07:31:27.250Z,6.66
2016-12-12T07:32:27.902Z,6.67
2016-12-12T07:33:28.592Z,6.63
2016-12-12T07:34:29.249Z,6.69
2016-12-12T07:35:29.883Z,6.66
2016-12-12T07:36:30.526Z,6.7
2016-12-12T07:37:31.181Z,6.77
2016-12-12T07:38:31.843Z,6.52
2016-12-12T07:39:32.576Z,6.52
2016-12-12T07:40:33.236Z,6.54
2016-12-12T07:41:33.911Z,6.3
2016-12-12T07:42:34.620Z,6.2
2016-12-12T07:43:35.301Z,6.24
2016-12-12T07:44:35.990Z,6.17
2016-12-12T07:45:36.658Z,6.14
2016-12-12T07:46:37.321Z,6.2
2016-12-12T07:47:38.037Z,6.24
2016-12-12T07:48:38.728Z,6.07
2016-12-12T07:49:39.382Z,6.09
2016-12-12T07:50:40.051Z,6.09
2016-12-12T07:51:40.731Z,6.11
2016-12-12T07:52:41.415Z,6.11
2016-12-12T07:53:42.075Z,6.12
2016-12-12T07:54:42.698Z,6.07
2016-12-12T07:55:43.379Z,6.01
2016-12-12T07:56:44.058Z,5.98
2016-12-12T07:57:44.711Z,6.02
2016-12-12T07:58:45.377Z,5.99
2016-12-12T07:59:46.024Z,5.99
2016-12-12T08:00:46.681Z,6.07
2016-12-12T08:01:47.341Z,6.05
2016-12-12T08:02:47.978Z,6.11
2016-12-12T08:03:48.646Z,6.01
2016-12-12T08:04:49.332Z,6.01
2016-12-12T08:05:49.986Z,5.98
2016-12-12T08:06:50.653Z,6.02
2016-12-12T08:07:51.297Z,6.02
2016-12-12T08:08:51.958Z,6.07
2016-12-12T08:09:52.619Z,6.01
2016-12-12T08:10:53.294Z,6.04
2016-12-12T08:11:53.918Z,5.99
2016-12-12T08:12:54.553Z,5.98
2016-12-12T08:13:55.210Z,6.08
2016-12-12T08:14:55.829Z,6.05
2016-12-12T08:15:56.475Z,6.04
2016-12-12T08:16:57.120Z,5.97
2016-12-12T08:17:57.792Z,5.86
2016-12-12T08:18:58.433Z,5.97
2016-12-12T08:19:59.078Z,5.94
2016-12-12T08:20:59.718Z,5.99
2016-12-12T08:22:00.380Z,5.97
2016-12-12T08:23:01.000Z,6.04
2016-12-12T08:24:01.626Z,5.91
2016-12-12T08:25:02.304Z,5.82
2016-12-12T08:26:02.975Z,5.76
2016-12-12T08:27:03.662Z,5.75
2016-12-12T08:28:04.308Z,5.76
2016-12-12T08:29:04.923Z,5.65
2016-12-12T08:30:05.545Z,5.71
2016-12-12T08:31:06.242Z,5.8
2016-12-12T08:32:06.887Z,5.73
2016-12-12T08:33:07.579Z,5.72
2016-12-12T08:34:08.240Z,5.82
2016-12-12T08:35:08.940Z,5.83
2016-12-12T08:36:09.579Z,5.76
2016-12-12T08:37:10.212Z,5.76
2016-12-12T08:38:10.876Z,5.83
2016-12-12T08:39:11.541Z,5.71
2016-12-12T08:40:12.178Z,5.76
2016-12-12T08:41:12.809Z,5.75
2016-12-12T08:42:13.507Z,5.75
2016-12-12T08:43:14.171Z,5.79
2016-12-12T08:44:14.875Z,5.79
2016-12-12T08:45:15.573Z,5.83
2016-12-12T08:46:16.281Z,5.84
2016-12-12T08:47:16.919Z,5.87
2016-12-12T08:48:17.554Z,5.87
2016-12-12T08:49:18.240Z,5.87
2016-12-12T08:50:18.888Z,5.97
2016-12-12T08:51:19.511Z,5.98
2016-12-12T08:52:20.200Z,6.05
2016-12-12T08:53:20.868Z,5.99
2016-12-12T08:54:21.575Z,6.04
2016-12-12T08:55:22.314Z,5.91
2016-12-12T08:56:23.021Z,5.93
2016-12-12T08:57:23.621Z,5.9
2016-12-12T08:58:24.266Z,5.93
2016-12-12T08:59:24.899Z,5.99
2016-12-12T09:00:25.623Z,5.97
2016-12-12T09:01:26.303Z,5.97
2016-12-12T09:02:26.937Z,5.84
2016-12-12T09:03:27.577Z,5.93
2016-12-12T09:04:28.211Z,5.87
2016-12-12T09:05:28.884Z,5.89
2016-12-12T09:06:29.538Z,5.9
2016-12-12T09:07:30.164Z,5.8
2016-12-12T09:08:30.835Z,5.84
2016-12-12T09:09:31.486Z,5.86
2016-12-12T09:10:32.170Z,5.76
2016-12-12T09:11:32.972Z,5.71
2016-12-12T09:12:33.645Z,5.82
2016-12-12T09:13:34.340Z,5.76
2016-12-12T09:14:35.008Z,5.73
2016-12-12T09:15:35.666Z,5.79
2016-12-12T09:16:36.335Z,5.82
2016-12-12T09:17:36.998Z,5.83
2016-12-12T09:18:37.695Z,5.76
2016-12-12T09:19:38.349Z,5.86
2016-12-12T09:20:39.018Z,5.83
2016-12-12T09:21:39.709Z,5.83
2016-12-12T09:22:40.417Z,5.68
2016-12-12T09:23:41.107Z,5.8
2016-12-12T09:24:41.816Z,5.72
2016-12-12T09:25:42.464Z,5.68
2016-12-12T09:26:43.191Z,5.72
2016-12-12T09:27:43.899Z,5.56
2016-12-12T09:28:44.553Z,5.57
2016-12-12T09:29:45.224Z,5.59
2016-12-12T09:30:45.881Z,5.72
2016-12-12T09:31:46.516Z,5.76
2016-12-12T09:32:47.188Z,5.64
2016-12-12T09:33:47.861Z,5.62
2016-12-12T09:34:48.573Z,5.65
2016-12-12T09:35:49.281Z,5.71
2016-12-12T09:36:49.964Z,5.53
2016-12-12T09:37:50.627Z,5.64
2016-12-12T09:38:51.369Z,5.66
2016-12-12T09:39:52.067Z,5.73
2016-12-12T09:40:52.738Z,5.72
2016-12-12T09:41:53.477Z,5.71
2016-12-12T09:42:54.152Z,5.71
2016-12-12T09:43:54.818Z,5.76
2016-12-12T09:44:55.465Z,5.79
2016-12-12T09:45:56.146Z,5.84
2016-12-12T09:46:56.885Z,5.83
2016-12-12T09:47:57.533Z,5.87
2016-12-12T09:48:58.173Z,5.97
2016-12-12T09:49:58.874Z,6.01
2016-12-12T09:50:59.530Z,5.9
2016-12-12T09:52:00.226Z,5.93
2016-12-12T09:53:00.956Z,6.04
2016-12-12T09:54:01.639Z,6.02
2016-12-12T09:55:02.298Z,5.91
2016-12-12T09:56:02.989Z,5.99
2016-12-12T09:57:03.660Z,6.02
2016-12-12T09:58:04.345Z,5.83
2016-12-12T09:59:05.009Z,5.9
2016-12-12T10:00:05.670Z,6.04
2016-12-12T10:01:06.354Z,5.99
2016-12-12T10:02:06.996Z,6.09
2016-12-12T10:03:07.671Z,6.11
2016-12-12T10:04:08.292Z,6.2
2016-12-12T10:05:08.923Z,6.26
2016-12-12T10:06:09.585Z,6.27
2016-12-12T10:07:10.259Z,6.2
2016-12-12T10:08:10.897Z,6.07
2016-12-12T10:09:11.610Z,6.02
2016-12-12T10:10:12.271Z,5.99
2016-12-12T10:11:12.947Z,6.02
2016-12-12T10:12:13.712Z,6.02
2016-12-12T10:13:14.381Z,6.08
2016-12-12T10:14:15.056Z,6.12
2016-12-12T10:15:15.736Z,6.08
2016-12-12T10:16:16.458Z,5.94
2016-12-12T10:17:17.104Z,6.05
2016-12-12T10:18:17.806Z,6.05
2016-12-12T10:19:18.478Z,6.04
2016-12-12T10:20:19.147Z,6.04
2016-12-12T10:21:19.827Z,6.09
2016-12-12T10:22:20.489Z,6.26
2016-12-12T10:23:21.249Z,6.19
2016-12-12T10:24:21.941Z,6.26
2016-12-12T10:25:22.579Z,6.24
2016-12-12T10:26:23.265Z,6.36
2016-12-12T10:27:23.941Z,6.41
2016-12-12T10:28:24.625Z,6.28
2016-12-12T10:29:25.302Z,6.28
2016-12-12T10:30:25.969Z,6.31
2016-12-12T10:31:26.648Z,6.3
2016-12-12T10:32:27.311Z,6.28
2016-12-12T10:33:27.973Z,6.45
2016-12-12T10:34:28.741Z,6.45
2016-12-12T10:35:29.379Z,6.45
2016-12-12T10:36:30.037Z,6.36
2016-12-12T10:37:30.711Z,6.42
2016-12-12T10:38:31.390Z,6.44
2016-12-12T10:39:32.095Z,6.45
2016-12-12T10:40:32.829Z,6.36
2016-12-12T10:41:33.507Z,6.38
2016-12-12T10:42:34.226Z,6.16
2016-12-12T10:43:34.892Z,6.16
2016-12-12T10:44:35.568Z,6.19
2016-12-12T10:45:36.202Z,6.31
